Terminal Aerodrome Forecast
Issued by NWS

Home | Current Version | Previous Version | Text Only | Print | Product List | Glossary On
Versions: 1 2 3 4 5 6 7 8 9 10 11 12 13 14 15 16 17 18 19 20 21 22 23 24 25 26 27 28 29 30 31 32 33 34
000
FTUS43 KPAH 270100 AAA
TAFOWB
TAF AMD
KOWB 270153Z 2702/2724 VRB04KT 6SM -RASN BR SCT009 OVC025
      TEMPO 2702/2704 2SM -SN OVC009
     FM270400 01004KT 4SM -SN BR SCT009 OVC012
     FM270800 31005KT 5SM BR OVC015=

USA.gov is the U.S. government's official web portal to all federal, state and local government web resources and services.